sensor_id;sensor_type;location;lat;lon;timestamp;P1;durP1;ratioP1;P2;durP2;ratioP2
14191;SDS011;7177;48.572;7.838;2024-01-15T00:00:25;63.23;;;28.80;;
14191;SDS011;7177;48.572;7.838;2024-01-15T00:02:51;62.80;;;29.23;;
14191;SDS011;7177;48.572;7.838;2024-01-15T00:05:16;57.07;;;28.77;;
14191;SDS011;7177;48.572;7.838;2024-01-15T00:07:42;58.70;;;28.33;;
14191;SDS011;7177;48.572;7.838;2024-01-15T00:10:07;63.00;;;30.57;;
14191;SDS011;7177;48.572;7.838;2024-01-15T00:12:36;59.20;;;28.47;;
14191;SDS011;7177;48.572;7.838;2024-01-15T00:15:02;55.65;;;26.80;;
14191;SDS011;7177;48.572;7.838;2024-01-15T00:17:28;66.73;;;29.80;;
14191;SDS011;7177;48.572;7.838;2024-01-15T00:19:53;55.83;;;27.60;;
14191;SDS011;7177;48.572;7.838;2024-01-15T00:22:19;61.40;;;30.13;;
14191;SDS011;7177;48.572;7.838;2024-01-15T00:24:45;61.23;;;27.57;;
14191;SDS011;7177;48.572;7.838;2024-01-15T00:27:10;61.67;;;28.37;;
14191;SDS011;7177;48.572;7.838;2024-01-15T00:29:36;64.13;;;28.63;;
14191;SDS011;7177;48.572;7.838;2024-01-15T00:32:01;62.73;;;28.97;;
14191;SDS011;7177;48.572;7.838;2024-01-15T00:34:27;59.03;;;27.63;;
14191;SDS011;7177;48.572;7.838;2024-01-15T00:36:52;60.83;;;26.97;;
14191;SDS011;7177;48.572;7.838;2024-01-15T00:39:18;59.13;;;27.70;;
14191;SDS011;7177;48.572;7.838;2024-01-15T00:41:43;62.73;;;28.73;;
14191;SDS011;7177;48.572;7.838;2024-01-15T00:44:09;53.73;;;27.70;;
14191;SDS011;7177;48.572;7.838;2024-01-15T00:46:41;57.70;;;27.67;;
14191;SDS011;7177;48.572;7.838;2024-01-15T00:49:10;60.03;;;28.42;;
14191;SDS011;7177;48.572;7.838;2024-01-15T00:51:36;57.25;;;27.77;;
14191;SDS011;7177;48.572;7.838;2024-01-15T00:54:02;56.50;;;27.57;;
14191;SDS011;7177;48.572;7.838;2024-01-15T00:56:28;52.87;;;25.80;;
14191;SDS011;7177;48.572;7.838;2024-01-15T00:58:53;52.37;;;26.50;;
14191;SDS011;7177;48.572;7.838;2024-01-15T01:01:19;56.57;;;26.67;;
14191;SDS011;7177;48.572;7.838;2024-01-15T01:03:44;60.30;;;27.60;;
14191;SDS011;7177;48.572;7.838;2024-01-15T01:06:10;56.57;;;27.63;;
14191;SDS011;7177;48.572;7.838;2024-01-15T01:08:35;58.07;;;29.30;;
14191;SDS011;7177;48.572;7.838;2024-01-15T01:11:01;56.03;;;26.37;;
14191;SDS011;7177;48.572;7.838;2024-01-15T01:13:26;53.47;;;26.00;;
14191;SDS011;7177;48.572;7.838;2024-01-15T01:15:52;54.07;;;26.43;;
14191;SDS011;7177;48.572;7.838;2024-01-15T01:18:17;55.63;;;26.63;;
14191;SDS011;7177;48.572;7.838;2024-01-15T01:20:43;61.97;;;27.73;;
14191;SDS011;7177;48.572;7.838;2024-01-15T01:23:08;58.90;;;27.80;;
14191;SDS011;7177;48.572;7.838;2024-01-15T01:25:34;62.20;;;28.53;;
14191;SDS011;7177;48.572;7.838;2024-01-15T01:27:59;53.40;;;27.37;;
14191;SDS011;7177;48.572;7.838;2024-01-15T01:30:25;57.77;;;27.83;;
14191;SDS011;7177;48.572;7.838;2024-01-15T01:32:50;54.80;;;26.27;;
14191;SDS011;7177;48.572;7.838;2024-01-15T01:35:16;51.30;;;25.07;;
14191;SDS011;7177;48.572;7.838;2024-01-15T01:37:41;55.43;;;26.30;;
14191;SDS011;7177;48.572;7.838;2024-01-15T01:40:07;61.97;;;29.00;;
14191;SDS011;7177;48.572;7.838;2024-01-15T01:42:33;62.67;;;30.02;;
14191;SDS011;7177;48.572;7.838;2024-01-15T01:44:58;62.23;;;28.33;;
14191;SDS011;7177;48.572;7.838;2024-01-15T01:47:24;61.50;;;28.60;;
14191;SDS011;7177;48.572;7.838;2024-01-15T01:49:51;66.88;;;29.67;;
14191;SDS011;7177;48.572;7.838;2024-01-15T01:52:17;61.30;;;28.90;;
14191;SDS011;7177;48.572;7.838;2024-01-15T01:54:43;62.63;;;26.73;;
14191;SDS011;7177;48.572;7.838;2024-01-15T01:57:09;52.33;;;27.30;;
14191;SDS011;7177;48.572;7.838;2024-01-15T01:59:35;57.08;;;29.15;;
14191;SDS011;7177;48.572;7.838;2024-01-15T02:02:02;58.27;;;27.70;;
14191;SDS011;7177;48.572;7.838;2024-01-15T02:04:28;54.60;;;27.80;;
14191;SDS011;7177;48.572;7.838;2024-01-15T02:06:56;65.30;;;29.33;;
14191;SDS011;7177;48.572;7.838;2024-01-15T02:09:21;62.40;;;27.93;;
14191;SDS011;7177;48.572;7.838;2024-01-15T02:11:47;63.67;;;30.47;;
14191;SDS011;7177;48.572;7.838;2024-01-15T02:14:13;62.30;;;29.50;;
14191;SDS011;7177;48.572;7.838;2024-01-15T02:16:38;57.77;;;27.70;;
14191;SDS011;7177;48.572;7.838;2024-01-15T02:19:04;61.33;;;28.27;;
14191;SDS011;7177;48.572;7.838;2024-01-15T02:21:31;65.70;;;28.90;;
14191;SDS011;7177;48.572;7.838;2024-01-15T02:23:57;59.08;;;28.05;;
14191;SDS011;7177;48.572;7.838;2024-01-15T02:26:23;62.13;;;28.73;;
14191;SDS011;7177;48.572;7.838;2024-01-15T02:28:48;61.57;;;29.20;;
14191;SDS011;7177;48.572;7.838;2024-01-15T02:31:16;68.00;;;29.75;;
14191;SDS011;7177;48.572;7.838;2024-01-15T02:33:42;63.37;;;31.13;;
14191;SDS011;7177;48.572;7.838;2024-01-15T02:36:08;65.78;;;31.02;;
14191;SDS011;7177;48.572;7.838;2024-01-15T02:38:34;62.80;;;30.37;;
14191;SDS011;7177;48.572;7.838;2024-01-15T02:40:59;62.87;;;30.53;;
14191;SDS011;7177;48.572;7.838;2024-01-15T02:43:25;63.50;;;29.47;;
14191;SDS011;7177;48.572;7.838;2024-01-15T02:45:50;63.13;;;28.63;;
14191;SDS011;7177;48.572;7.838;2024-01-15T02:48:16;68.47;;;31.00;;
14191;SDS011;7177;48.572;7.838;2024-01-15T02:50:41;65.23;;;30.67;;
14191;SDS011;7177;48.572;7.838;2024-01-15T02:53:07;62.53;;;29.60;;
14191;SDS011;7177;48.572;7.838;2024-01-15T02:55:32;66.93;;;30.53;;
14191;SDS011;7177;48.572;7.838;2024-01-15T02:57:58;66.53;;;32.27;;
14191;SDS011;7177;48.572;7.838;2024-01-15T03:00:24;68.10;;;32.35;;
14191;SDS011;7177;48.572;7.838;2024-01-15T03:02:50;67.27;;;32.37;;
14191;SDS011;7177;48.572;7.838;2024-01-15T03:05:16;64.57;;;30.90;;
14191;SDS011;7177;48.572;7.838;2024-01-15T03:07:42;64.60;;;31.50;;
14191;SDS011;7177;48.572;7.838;2024-01-15T03:10:07;66.78;;;30.67;;
14191;SDS011;7177;48.572;7.838;2024-01-15T03:12:33;67.37;;;31.07;;
14191;SDS011;7177;48.572;7.838;2024-01-15T03:14:59;68.10;;;32.87;;
14191;SDS011;7177;48.572;7.838;2024-01-15T03:17:25;67.07;;;32.77;;
14191;SDS011;7177;48.572;7.838;2024-01-15T03:19:50;71.47;;;32.73;;
14191;SDS011;7177;48.572;7.838;2024-01-15T03:22:16;69.07;;;32.23;;
14191;SDS011;7177;48.572;7.838;2024-01-15T03:24:42;69.40;;;31.40;;
14191;SDS011;7177;48.572;7.838;2024-01-15T03:27:08;70.33;;;32.10;;
14191;SDS011;7177;48.572;7.838;2024-01-15T03:29:34;69.90;;;32.30;;
14191;SDS011;7177;48.572;7.838;2024-01-15T03:31:59;66.60;;;31.70;;
14191;SDS011;7177;48.572;7.838;2024-01-15T03:34:25;75.80;;;33.30;;
14191;SDS011;7177;48.572;7.838;2024-01-15T03:36:50;65.37;;;32.77;;
14191;SDS011;7177;48.572;7.838;2024-01-15T03:39:16;62.93;;;30.87;;
14191;SDS011;7177;48.572;7.838;2024-01-15T03:41:41;65.73;;;31.97;;
14191;SDS011;7177;48.572;7.838;2024-01-15T03:44:07;63.40;;;31.67;;
14191;SDS011;7177;48.572;7.838;2024-01-15T03:46:32;62.93;;;30.77;;
14191;SDS011;7177;48.572;7.838;2024-01-15T03:48:58;67.63;;;31.87;;
14191;SDS011;7177;48.572;7.838;2024-01-15T03:51:23;65.67;;;30.23;;
14191;SDS011;7177;48.572;7.838;2024-01-15T03:53:49;67.17;;;32.17;;
14191;SDS011;7177;48.572;7.838;2024-01-15T03:56:15;61.97;;;28.97;;
14191;SDS011;7177;48.572;7.838;2024-01-15T03:58:40;65.87;;;31.13;;
14191;SDS011;7177;48.572;7.838;2024-01-15T04:01:09;67.30;;;31.57;;
14191;SDS011;7177;48.572;7.838;2024-01-15T04:03:35;65.47;;;31.38;;
14191;SDS011;7177;48.572;7.838;2024-01-15T04:06:01;61.40;;;31.05;;
14191;SDS011;7177;48.572;7.838;2024-01-15T04:08:27;62.50;;;31.57;;
14191;SDS011;7177;48.572;7.838;2024-01-15T04:10:52;66.10;;;32.67;;
14191;SDS011;7177;48.572;7.838;2024-01-15T04:13:18;65.00;;;31.87;;
14191;SDS011;7177;48.572;7.838;2024-01-15T04:15:43;62.77;;;31.87;;
14191;SDS011;7177;48.572;7.838;2024-01-15T04:18:09;70.63;;;33.47;;
14191;SDS011;7177;48.572;7.838;2024-01-15T04:20:34;65.43;;;31.37;;
14191;SDS011;7177;48.572;7.838;2024-01-15T04:23:00;66.13;;;33.07;;
14191;SDS011;7177;48.572;7.838;2024-01-15T04:25:25;70.33;;;33.87;;
14191;SDS011;7177;48.572;7.838;2024-01-15T04:27:51;65.33;;;32.00;;
14191;SDS011;7177;48.572;7.838;2024-01-15T04:30:16;61.87;;;32.53;;
14191;SDS011;7177;48.572;7.838;2024-01-15T04:32:42;69.57;;;32.80;;
14191;SDS011;7177;48.572;7.838;2024-01-15T04:35:07;64.83;;;31.17;;
14191;SDS011;7177;48.572;7.838;2024-01-15T04:37:33;67.43;;;32.90;;
14191;SDS011;7177;48.572;7.838;2024-01-15T04:39:59;67.63;;;33.07;;
14191;SDS011;7177;48.572;7.838;2024-01-15T04:42:24;63.37;;;32.23;;
14191;SDS011;7177;48.572;7.838;2024-01-15T04:44:50;61.73;;;31.40;;
14191;SDS011;7177;48.572;7.838;2024-01-15T04:47:16;69.88;;;32.30;;
14191;SDS011;7177;48.572;7.838;2024-01-15T04:49:41;67.10;;;32.70;;
14191;SDS011;7177;48.572;7.838;2024-01-15T04:52:07;67.40;;;32.50;;
14191;SDS011;7177;48.572;7.838;2024-01-15T04:54:35;63.20;;;32.25;;
14191;SDS011;7177;48.572;7.838;2024-01-15T04:57:01;63.83;;;32.30;;
14191;SDS011;7177;48.572;7.838;2024-01-15T04:59:27;64.63;;;31.95;;
14191;SDS011;7177;48.572;7.838;2024-01-15T05:01:53;71.63;;;32.83;;
14191;SDS011;7177;48.572;7.838;2024-01-15T05:04:18;65.93;;;32.97;;
14191;SDS011;7177;48.572;7.838;2024-01-15T05:06:44;64.60;;;32.40;;
14191;SDS011;7177;48.572;7.838;2024-01-15T05:09:09;64.57;;;32.93;;
14191;SDS011;7177;48.572;7.838;2024-01-15T05:11:35;64.37;;;32.43;;
14191;SDS011;7177;48.572;7.838;2024-01-15T05:14:00;62.80;;;31.70;;
14191;SDS011;7177;48.572;7.838;2024-01-15T05:16:26;67.77;;;33.53;;
14191;SDS011;7177;48.572;7.838;2024-01-15T05:18:51;68.77;;;32.70;;
14191;SDS011;7177;48.572;7.838;2024-01-15T05:21:17;70.00;;;32.93;;
14191;SDS011;7177;48.572;7.838;2024-01-15T05:23:42;66.23;;;32.70;;
14191;SDS011;7177;48.572;7.838;2024-01-15T05:26:08;65.73;;;32.00;;
14191;SDS011;7177;48.572;7.838;2024-01-15T05:28:34;65.17;;;32.40;;
14191;SDS011;7177;48.572;7.838;2024-01-15T05:30:59;64.20;;;32.80;;
14191;SDS011;7177;48.572;7.838;2024-01-15T05:33:25;62.17;;;32.47;;
14191;SDS011;7177;48.572;7.838;2024-01-15T05:35:50;64.20;;;32.43;;
14191;SDS011;7177;48.572;7.838;2024-01-15T05:38:16;69.17;;;32.37;;
14191;SDS011;7177;48.572;7.838;2024-01-15T05:40:42;67.50;;;32.38;;
14191;SDS011;7177;48.572;7.838;2024-01-15T05:43:07;69.27;;;32.63;;
14191;SDS011;7177;48.572;7.838;2024-01-15T05:45:34;66.20;;;32.70;;
14191;SDS011;7177;48.572;7.838;2024-01-15T05:48:00;63.83;;;32.33;;
14191;SDS011;7177;48.572;7.838;2024-01-15T05:50:26;66.00;;;32.43;;
14191;SDS011;7177;48.572;7.838;2024-01-15T05:52:52;71.30;;;33.60;;
14191;SDS011;7177;48.572;7.838;2024-01-15T05:55:17;65.30;;;32.37;;
14191;SDS011;7177;48.572;7.838;2024-01-15T05:57:43;62.13;;;33.10;;
14191;SDS011;7177;48.572;7.838;2024-01-15T06:00:09;64.20;;;31.67;;
14191;SDS011;7177;48.572;7.838;2024-01-15T06:02:39;69.97;;;33.40;;
14191;SDS011;7177;48.572;7.838;2024-01-15T06:05:05;65.90;;;32.63;;
14191;SDS011;7177;48.572;7.838;2024-01-15T06:07:31;60.40;;;31.33;;
14191;SDS011;7177;48.572;7.838;2024-01-15T06:09:57;65.00;;;32.42;;
14191;SDS011;7177;48.572;7.838;2024-01-15T06:12:22;58.00;;;30.07;;
14191;SDS011;7177;48.572;7.838;2024-01-15T06:14:48;61.17;;;31.43;;
14191;SDS011;7177;48.572;7.838;2024-01-15T06:17:14;64.20;;;32.10;;
14191;SDS011;7177;48.572;7.838;2024-01-15T06:19:39;59.60;;;31.27;;
14191;SDS011;7177;48.572;7.838;2024-01-15T06:22:05;60.50;;;31.47;;
14191;SDS011;7177;48.572;7.838;2024-01-15T06:24:30;54.30;;;28.40;;
14191;SDS011;7177;48.572;7.838;2024-01-15T06:26:56;60.80;;;29.57;;
14191;SDS011;7177;48.572;7.838;2024-01-15T06:29:21;63.70;;;30.93;;
14191;SDS011;7177;48.572;7.838;2024-01-15T06:31:50;59.10;;;30.60;;
14191;SDS011;7177;48.572;7.838;2024-01-15T06:34:15;60.60;;;30.07;;
14191;SDS011;7177;48.572;7.838;2024-01-15T06:36:41;56.40;;;28.57;;
14191;SDS011;7177;48.572;7.838;2024-01-15T06:39:07;55.97;;;27.23;;
14191;SDS011;7177;48.572;7.838;2024-01-15T06:41:32;55.80;;;28.17;;
14191;SDS011;7177;48.572;7.838;2024-01-15T06:43:58;56.70;;;27.57;;
14191;SDS011;7177;48.572;7.838;2024-01-15T06:46:23;55.30;;;29.33;;
14191;SDS011;7177;48.572;7.838;2024-01-15T06:48:49;56.30;;;28.80;;
14191;SDS011;7177;48.572;7.838;2024-01-15T06:51:15;59.27;;;27.73;;
14191;SDS011;7177;48.572;7.838;2024-01-15T06:53:41;55.30;;;27.40;;
14191;SDS011;7177;48.572;7.838;2024-01-15T06:56:07;55.77;;;27.10;;
14191;SDS011;7177;48.572;7.838;2024-01-15T06:58:33;53.65;;;28.27;;
14191;SDS011;7177;48.572;7.838;2024-01-15T07:00:59;51.80;;;28.20;;
14191;SDS011;7177;48.572;7.838;2024-01-15T07:03:24;55.73;;;26.87;;
14191;SDS011;7177;48.572;7.838;2024-01-15T07:05:50;53.87;;;26.87;;
14191;SDS011;7177;48.572;7.838;2024-01-15T07:08:15;50.53;;;26.03;;
14191;SDS011;7177;48.572;7.838;2024-01-15T07:10:41;49.47;;;25.80;;
14191;SDS011;7177;48.572;7.838;2024-01-15T07:13:06;43.60;;;23.00;;
14191;SDS011;7177;48.572;7.838;2024-01-15T07:15:32;47.83;;;23.87;;
14191;SDS011;7177;48.572;7.838;2024-01-15T07:17:58;44.60;;;23.53;;
14191;SDS011;7177;48.572;7.838;2024-01-15T07:20:23;40.67;;;21.47;;
14191;SDS011;7177;48.572;7.838;2024-01-15T07:22:49;44.90;;;23.17;;
14191;SDS011;7177;48.572;7.838;2024-01-15T07:25:15;43.43;;;22.90;;
14191;SDS011;7177;48.572;7.838;2024-01-15T07:27:41;42.10;;;22.80;;
14191;SDS011;7177;48.572;7.838;2024-01-15T07:30:09;47.00;;;24.33;;
14191;SDS011;7177;48.572;7.838;2024-01-15T07:32:36;47.13;;;24.60;;
14191;SDS011;7177;48.572;7.838;2024-01-15T07:35:02;50.20;;;25.77;;
14191;SDS011;7177;48.572;7.838;2024-01-15T07:37:27;48.80;;;24.37;;
14191;SDS011;7177;48.572;7.838;2024-01-15T07:39:53;52.10;;;26.27;;
14191;SDS011;7177;48.572;7.838;2024-01-15T07:42:19;53.60;;;25.23;;
14191;SDS011;7177;48.572;7.838;2024-01-15T07:44:44;46.30;;;25.43;;
14191;SDS011;7177;48.572;7.838;2024-01-15T07:47:10;53.17;;;26.20;;
14191;SDS011;7177;48.572;7.838;2024-01-15T07:49:35;48.47;;;24.83;;
14191;SDS011;7177;48.572;7.838;2024-01-15T07:52:01;46.40;;;24.27;;
14191;SDS011;7177;48.572;7.838;2024-01-15T07:54:27;51.38;;;24.88;;
14191;SDS011;7177;48.572;7.838;2024-01-15T07:56:53;46.70;;;24.33;;
14191;SDS011;7177;48.572;7.838;2024-01-15T07:59:19;49.63;;;25.75;;
14191;SDS011;7177;48.572;7.838;2024-01-15T08:01:44;50.80;;;25.07;;
14191;SDS011;7177;48.572;7.838;2024-01-15T08:04:10;46.33;;;24.33;;
14191;SDS011;7177;48.572;7.838;2024-01-15T08:06:37;52.67;;;27.15;;
14191;SDS011;7177;48.572;7.838;2024-01-15T08:09:03;50.07;;;26.87;;
14191;SDS011;7177;48.572;7.838;2024-01-15T08:11:29;52.53;;;26.37;;
14191;SDS011;7177;48.572;7.838;2024-01-15T08:13:55;52.60;;;26.83;;
14191;SDS011;7177;48.572;7.838;2024-01-15T08:16:21;54.20;;;26.13;;
14191;SDS011;7177;48.572;7.838;2024-01-15T08:18:47;53.90;;;27.90;;
14191;SDS011;7177;48.572;7.838;2024-01-15T08:21:12;51.43;;;26.30;;
14191;SDS011;7177;48.572;7.838;2024-01-15T08:23:38;59.70;;;29.53;;
14191;SDS011;7177;48.572;7.838;2024-01-15T08:26:04;56.70;;;27.40;;
14191;SDS011;7177;48.572;7.838;2024-01-15T08:28:29;55.60;;;26.87;;
14191;SDS011;7177;48.572;7.838;2024-01-15T08:30:55;57.07;;;27.83;;
14191;SDS011;7177;48.572;7.838;2024-01-15T08:33:21;54.73;;;26.67;;
14191;SDS011;7177;48.572;7.838;2024-01-15T08:35:46;54.20;;;27.10;;
14191;SDS011;7177;48.572;7.838;2024-01-15T08:38:12;50.40;;;26.83;;
14191;SDS011;7177;48.572;7.838;2024-01-15T08:40:38;55.07;;;27.00;;
14191;SDS011;7177;48.572;7.838;2024-01-15T08:43:03;49.30;;;25.97;;
14191;SDS011;7177;48.572;7.838;2024-01-15T08:45:31;55.13;;;27.85;;
14191;SDS011;7177;48.572;7.838;2024-01-15T08:47:57;52.47;;;26.27;;
14191;SDS011;7177;48.572;7.838;2024-01-15T08:50:22;48.00;;;25.30;;
14191;SDS011;7177;48.572;7.838;2024-01-15T08:52:48;51.27;;;24.57;;
14191;SDS011;7177;48.572;7.838;2024-01-15T08:55:13;55.27;;;25.43;;
14191;SDS011;7177;48.572;7.838;2024-01-15T08:57:39;54.53;;;26.03;;
14191;SDS011;7177;48.572;7.838;2024-01-15T09:00:05;51.13;;;25.57;;
14191;SDS011;7177;48.572;7.838;2024-01-15T09:02:33;48.53;;;26.20;;
14191;SDS011;7177;48.572;7.838;2024-01-15T09:05:00;54.55;;;27.17;;
14191;SDS011;7177;48.572;7.838;2024-01-15T09:07:25;54.10;;;27.30;;
14191;SDS011;7177;48.572;7.838;2024-01-15T09:09:51;54.30;;;27.77;;
14191;SDS011;7177;48.572;7.838;2024-01-15T09:12:17;51.60;;;27.23;;
14191;SDS011;7177;48.572;7.838;2024-01-15T09:14:45;57.90;;;28.05;;
14191;SDS011;7177;48.572;7.838;2024-01-15T09:17:11;57.20;;;29.57;;
14191;SDS011;7177;48.572;7.838;2024-01-15T09:19:37;57.40;;;30.17;;
14191;SDS011;7177;48.572;7.838;2024-01-15T09:22:04;55.42;;;27.05;;
14191;SDS011;7177;48.572;7.838;2024-01-15T09:24:30;51.63;;;26.57;;
14191;SDS011;7177;48.572;7.838;2024-01-15T09:26:55;50.70;;;25.03;;
14191;SDS011;7177;48.572;7.838;2024-01-15T09:29:21;47.40;;;25.03;;
14191;SDS011;7177;48.572;7.838;2024-01-15T09:31:48;47.35;;;24.40;;
14191;SDS011;7177;48.572;7.838;2024-01-15T09:34:15;48.53;;;23.27;;
14191;SDS011;7177;48.572;7.838;2024-01-15T09:36:40;44.83;;;23.60;;
14191;SDS011;7177;48.572;7.838;2024-01-15T09:39:09;47.40;;;24.00;;
14191;SDS011;7177;48.572;7.838;2024-01-15T09:41:36;44.72;;;23.38;;
14191;SDS011;7177;48.572;7.838;2024-01-15T09:44:02;43.00;;;23.00;;
14191;SDS011;7177;48.572;7.838;2024-01-15T09:46:28;48.42;;;24.20;;
14191;SDS011;7177;48.572;7.838;2024-01-15T09:48:55;47.58;;;23.85;;
14191;SDS011;7177;48.572;7.838;2024-01-15T09:51:20;45.97;;;23.67;;
14191;SDS011;7177;48.572;7.838;2024-01-15T09:53:46;40.65;;;21.52;;
14191;SDS011;7177;48.572;7.838;2024-01-15T09:56:13;44.55;;;22.67;;
14191;SDS011;7177;48.572;7.838;2024-01-15T09:58:39;44.53;;;23.90;;
14191;SDS011;7177;48.572;7.838;2024-01-15T10:01:07;41.00;;;23.58;;
14191;SDS011;7177;48.572;7.838;2024-01-15T10:03:34;41.00;;;22.25;;
14191;SDS011;7177;48.572;7.838;2024-01-15T10:05:59;37.63;;;20.87;;
14191;SDS011;7177;48.572;7.838;2024-01-15T10:08:27;34.47;;;19.02;;
14191;SDS011;7177;48.572;7.838;2024-01-15T10:10:53;39.40;;;20.77;;
14191;SDS011;7177;48.572;7.838;2024-01-15T10:13:18;33.67;;;19.00;;
14191;SDS011;7177;48.572;7.838;2024-01-15T10:15:46;34.08;;;18.70;;
14191;SDS011;7177;48.572;7.838;2024-01-15T10:18:14;27.95;;;15.27;;
14191;SDS011;7177;48.572;7.838;2024-01-15T10:20:40;24.23;;;13.57;;
14191;SDS011;7177;48.572;7.838;2024-01-15T10:23:05;21.77;;;11.63;;
14191;SDS011;7177;48.572;7.838;2024-01-15T10:25:31;23.47;;;12.63;;
14191;SDS011;7177;48.572;7.838;2024-01-15T10:28:00;26.07;;;13.47;;
14191;SDS011;7177;48.572;7.838;2024-01-15T10:30:26;21.20;;;11.40;;
14191;SDS011;7177;48.572;7.838;2024-01-15T10:32:59;19.33;;;11.27;;
14191;SDS011;7177;48.572;7.838;2024-01-15T10:35:35;22.17;;;10.82;;
14191;SDS011;7177;48.572;7.838;2024-01-15T10:38:01;21.40;;;12.43;;
14191;SDS011;7177;48.572;7.838;2024-01-15T10:40:27;22.02;;;11.77;;
14191;SDS011;7177;48.572;7.838;2024-01-15T10:42:53;21.13;;;11.75;;
14191;SDS011;7177;48.572;7.838;2024-01-15T10:45:19;17.07;;;10.87;;
14191;SDS011;7177;48.572;7.838;2024-01-15T10:47:45;21.47;;;10.87;;
14191;SDS011;7177;48.572;7.838;2024-01-15T10:50:11;17.47;;;10.30;;
14191;SDS011;7177;48.572;7.838;2024-01-15T10:52:37;17.95;;;9.85;;
14191;SDS011;7177;48.572;7.838;2024-01-15T10:55:05;17.80;;;10.38;;
14191;SDS011;7177;48.572;7.838;2024-01-15T10:57:32;15.43;;;9.10;;
14191;SDS011;7177;48.572;7.838;2024-01-15T10:59:58;13.40;;;8.23;;
14191;SDS011;7177;48.572;7.838;2024-01-15T11:02:24;14.83;;;8.30;;
14191;SDS011;7177;48.572;7.838;2024-01-15T11:04:50;9.90;;;7.18;;
14191;SDS011;7177;48.572;7.838;2024-01-15T11:07:16;12.07;;;7.17;;
14191;SDS011;7177;48.572;7.838;2024-01-15T11:09:43;11.52;;;7.82;;
14191;SDS011;7177;48.572;7.838;2024-01-15T11:12:11;12.18;;;7.43;;
14191;SDS011;7177;48.572;7.838;2024-01-15T11:14:38;11.02;;;7.40;;
14191;SDS011;7177;48.572;7.838;2024-01-15T11:17:10;11.15;;;7.00;;
14191;SDS011;7177;48.572;7.838;2024-01-15T11:19:43;10.85;;;7.13;;
14191;SDS011;7177;48.572;7.838;2024-01-15T11:22:10;12.45;;;7.63;;
14191;SDS011;7177;48.572;7.838;2024-01-15T11:24:54;11.85;;;7.80;;
14191;SDS011;7177;48.572;7.838;2024-01-15T11:27:39;10.77;;;7.03;;
14191;SDS011;7177;48.572;7.838;2024-01-15T11:30:09;9.52;;;6.43;;
14191;SDS011;7177;48.572;7.838;2024-01-15T11:32:36;10.35;;;7.13;;
14191;SDS011;7177;48.572;7.838;2024-01-15T11:35:02;10.10;;;6.53;;
14191;SDS011;7177;48.572;7.838;2024-01-15T11:37:29;10.88;;;7.07;;
14191;SDS011;7177;48.572;7.838;2024-01-15T11:40:15;9.40;;;6.20;;
14191;SDS011;7177;48.572;7.838;2024-01-15T11:42:44;7.93;;;5.75;;
14191;SDS011;7177;48.572;7.838;2024-01-15T11:45:10;8.68;;;6.30;;
14191;SDS011;7177;48.572;7.838;2024-01-15T11:50:20;11.07;;;6.70;;
14191;SDS011;7177;48.572;7.838;2024-01-15T11:52:49;9.07;;;6.00;;
14191;SDS011;7177;48.572;7.838;2024-01-15T11:55:33;8.88;;;6.07;;
14191;SDS011;7177;48.572;7.838;2024-01-15T11:58:10;10.02;;;6.65;;
14191;SDS011;7177;48.572;7.838;2024-01-15T12:00:48;10.73;;;6.72;;
14191;SDS011;7177;48.572;7.838;2024-01-15T12:03:15;12.45;;;7.50;;
14191;SDS011;7177;48.572;7.838;2024-01-15T12:05:41;8.83;;;6.47;;
14191;SDS011;7177;48.572;7.838;2024-01-15T12:08:07;10.60;;;6.90;;
14191;SDS011;7177;48.572;7.838;2024-01-15T12:10:36;11.48;;;7.03;;
14191;SDS011;7177;48.572;7.838;2024-01-15T12:13:10;12.20;;;7.60;;
14191;SDS011;7177;48.572;7.838;2024-01-15T12:15:40;11.00;;;7.15;;
14191;SDS011;7177;48.572;7.838;2024-01-15T12:18:08;10.90;;;6.82;;
14191;SDS011;7177;48.572;7.838;2024-01-15T12:20:34;8.93;;;6.43;;
14191;SDS011;7177;48.572;7.838;2024-01-15T12:23:01;10.57;;;6.87;;
14191;SDS011;7177;48.572;7.838;2024-01-15T12:25:31;12.70;;;7.82;;
14191;SDS011;7177;48.572;7.838;2024-01-15T12:27:57;12.73;;;7.95;;
14191;SDS011;7177;48.572;7.838;2024-01-15T12:30:25;16.17;;;8.82;;
14191;SDS011;7177;48.572;7.838;2024-01-15T12:32:51;12.18;;;7.75;;
14191;SDS011;7177;48.572;7.838;2024-01-15T12:35:17;11.33;;;7.10;;
14191;SDS011;7177;48.572;7.838;2024-01-15T12:37:42;13.70;;;7.83;;
14191;SDS011;7177;48.572;7.838;2024-01-15T12:40:09;13.00;;;7.82;;
14191;SDS011;7177;48.572;7.838;2024-01-15T12:42:41;12.48;;;8.50;;
14191;SDS011;7177;48.572;7.838;2024-01-15T12:45:08;13.50;;;8.05;;
14191;SDS011;7177;48.572;7.838;2024-01-15T12:47:35;13.88;;;8.57;;
14191;SDS011;7177;48.572;7.838;2024-01-15T12:50:01;13.27;;;8.05;;
14191;SDS011;7177;48.572;7.838;2024-01-15T12:52:28;12.10;;;8.40;;
14191;SDS011;7177;48.572;7.838;2024-01-15T12:54:54;18.92;;;9.32;;
14191;SDS011;7177;48.572;7.838;2024-01-15T12:57:20;15.40;;;10.32;;
14191;SDS011;7177;48.572;7.838;2024-01-15T12:59:46;16.53;;;9.47;;
14191;SDS011;7177;48.572;7.838;2024-01-15T13:02:12;15.63;;;8.50;;
14191;SDS011;7177;48.572;7.838;2024-01-15T13:04:38;15.45;;;9.82;;
14191;SDS011;7177;48.572;7.838;2024-01-15T13:07:03;13.17;;;8.57;;
14191;SDS011;7177;48.572;7.838;2024-01-15T13:09:30;15.07;;;9.18;;
14191;SDS011;7177;48.572;7.838;2024-01-15T13:11:55;14.07;;;8.20;;
14191;SDS011;7177;48.572;7.838;2024-01-15T13:14:21;12.70;;;8.80;;
14191;SDS011;7177;48.572;7.838;2024-01-15T13:16:46;14.23;;;7.90;;
14191;SDS011;7177;48.572;7.838;2024-01-15T13:19:12;15.27;;;9.47;;
14191;SDS011;7177;48.572;7.838;2024-01-15T13:21:38;14.50;;;8.57;;
14191;SDS011;7177;48.572;7.838;2024-01-15T13:24:07;14.60;;;8.80;;
14191;SDS011;7177;48.572;7.838;2024-01-15T13:26:33;16.88;;;9.48;;
14191;SDS011;7177;48.572;7.838;2024-01-15T13:29:00;15.73;;;9.73;;
14191;SDS011;7177;48.572;7.838;2024-01-15T13:31:26;16.63;;;9.70;;
14191;SDS011;7177;48.572;7.838;2024-01-15T13:33:55;13.73;;;9.50;;
14191;SDS011;7177;48.572;7.838;2024-01-15T13:36:24;12.23;;;8.03;;
14191;SDS011;7177;48.572;7.838;2024-01-15T13:38:53;12.90;;;8.68;;
14191;SDS011;7177;48.572;7.838;2024-01-15T13:41:19;13.13;;;8.40;;
14191;SDS011;7177;48.572;7.838;2024-01-15T13:43:49;13.70;;;8.63;;
14191;SDS011;7177;48.572;7.838;2024-01-15T13:46:15;14.15;;;8.35;;
14191;SDS011;7177;48.572;7.838;2024-01-15T13:48:42;16.15;;;9.45;;
14191;SDS011;7177;48.572;7.838;2024-01-15T13:51:07;13.47;;;8.57;;
14191;SDS011;7177;48.572;7.838;2024-01-15T13:53:33;13.20;;;8.50;;
14191;SDS011;7177;48.572;7.838;2024-01-15T13:55:59;13.77;;;8.90;;
14191;SDS011;7177;48.572;7.838;2024-01-15T13:58:24;15.97;;;9.50;;
14191;SDS011;7177;48.572;7.838;2024-01-15T14:00:50;13.07;;;8.57;;
14191;SDS011;7177;48.572;7.838;2024-01-15T14:03:17;12.68;;;8.77;;
14191;SDS011;7177;48.572;7.838;2024-01-15T14:05:42;19.43;;;9.47;;
14191;SDS011;7177;48.572;7.838;2024-01-15T14:08:08;16.20;;;10.40;;
14191;SDS011;7177;48.572;7.838;2024-01-15T14:10:33;14.87;;;10.13;;
14191;SDS011;7177;48.572;7.838;2024-01-15T14:12:59;13.33;;;9.30;;
14191;SDS011;7177;48.572;7.838;2024-01-15T14:15:24;15.73;;;10.17;;
14191;SDS011;7177;48.572;7.838;2024-01-15T14:17:50;14.47;;;9.80;;
14191;SDS011;7177;48.572;7.838;2024-01-15T14:20:16;15.30;;;10.67;;
14191;SDS011;7177;48.572;7.838;2024-01-15T14:22:42;15.73;;;9.70;;
14191;SDS011;7177;48.572;7.838;2024-01-15T14:25:08;16.60;;;10.90;;
14191;SDS011;7177;48.572;7.838;2024-01-15T14:27:33;17.97;;;10.63;;
14191;SDS011;7177;48.572;7.838;2024-01-15T14:29:59;15.47;;;11.13;;
14191;SDS011;7177;48.572;7.838;2024-01-15T14:32:24;16.67;;;10.37;;
14191;SDS011;7177;48.572;7.838;2024-01-15T14:34:50;15.33;;;10.60;;